Wilson Clyde — 8PRV — position and weather

sailwx.info

Track history (hours):
 
Tides and Currents Weather Stations Pressure Air Temp Water Temp Dewpoint Dewpoint Depression Visibility Wind Speed Wind Dir Waves Ship Positions

Wilson Clyde

Last reported at 2017-May-22 23:22 UTC. Time now 2017-May-23 14:50 UTC.
Position N 66°15' E 011°44'.

Length 100 m; draft 4.2 m.

Type: Cargo ship. MMSI: 314187000.

Date/timePositionNaut miles runAvg speedWind from/ knotsBaromVisibWave heightAir tempDewpointWater temp
2017-May-22 23:22N 66°15' E 011°44'410.3
2017-May-22 23:00N 66°15' E 011°53'510.4
2017-May-22 22:30N 66°16' E 012°06'510.3
2017-May-22 22:00N 66°17' E 012°19'510.2
2017-May-22 21:30N 66°15' E 012°31'5 9.2
2017-May-22 21:00N 66°17' E 012°42'510.9
2017-May-22 20:30N 66°20' E 012°53'510.1
2017-May-22 20:00N 66°25' E 012°59'510.9
2017-May-22 19:30N 66°30' E 012°59'4 8.5
2017-May-22 19:00N 66°34' E 013°04'611.0
2017-May-22 18:30N 66°39' E 013°07'611.2
2017-May-22 18:00N 66°44' E 013°12'510.5
2017-May-22 17:30N 66°48' E 013°22'510.9
2017-May-22 17:00N 66°49' E 013°35'5 9.8
2017-May-22 16:30N 66°49' E 013°48'  
2017-May-18 00:17N 66°48' E 013°56'1 2.9
2017-May-17 23:58N 66°48' E 013°54'510.7
2017-May-17 23:30N 66°49' E 013°42'611.2
2017-May-17 23:00N 66°49' E 013°27'610.8
2017-May-17 22:30N 66°46' E 013°15'510.4
2017-May-17 22:00N 66°41' E 013°09'510.6
2017-May-17 21:30N 66°37' E 013°04'5 9.3
2017-May-17 21:00N 66°32' E 012°59'5 9.5
2017-May-17 20:30N 66°28' E 012°59'611.0
2017-May-17 20:00N 66°22' E 012°58'510.3
2017-May-17 19:29N 66°19' E 012°47'710.1
2017-May-17 18:48N 66°15' E 012°33'3 8.9
2017-May-17 18:30N 66°15' E 012°26'4 8.4
2017-May-17 18:00N 66°17' E 012°16'4 9.0
2017-May-17 17:30N 66°16' E 012°06'5 9.2
2017-May-17 17:00N 66°15' E 011°55'  
2017-May-15 03:34N 59°28' W 003°53'1 9.3
2017-May-15 03:30N 59°27' W 003°54'5 9.4
2017-May-15 03:00N 59°24' W 003°60'5 9.6
2017-May-15 02:30N 59°20' W 004°06'5 9.8
2017-May-15 02:00N 59°17' W 004°13'5 9.9
2017-May-15 01:30N 59°13' W 004°20'5 9.4
2017-May-15 01:00N 59°10' W 004°26'5 9.7
2017-May-15 00:30N 59°06' W 004°32'5 9.9
2017-May-15 00:00N 59°02' W 004°38'204 9.6
2017-May-14 02:40N 55°51' W 006°54'211.2
2017-May-14 02:30N 55°50' W 006°52'611.5
2017-May-14 02:00N 55°45' W 006°46'611.7
2017-May-14 01:30N 55°40' W 006°39'611.8
2017-May-14 01:00N 55°36' W 006°33'510.5
2017-May-14 00:30N 55°32' W 006°27'5 9.9
2017-May-14 00:00N 55°28' W 006°22'5 9.2
2017-May-13 23:30N 55°26' W 006°14'4 8.8
2017-May-13 23:00N 55°25' W 006°07'4 8.1
2017-May-13 22:30N 55°23' W 006°01'4 8.2
2017-May-13 22:00N 55°20' W 005°57'4 7.8
2017-May-13 21:30N 55°17' W 005°52'4 8.3
2017-May-13 21:00N 55°13' W 005°48'4 8.6
2017-May-13 20:30N 55°10' W 005°44'13 9.6
2017-May-13 19:09N 54°59' W 005°30'210.6
2017-May-13 19:00N 54°58' W 005°29'510.9
2017-May-13 18:30N 54°53' W 005°24'611.3
2017-May-13 18:00N 54°49' W 005°19'611.5
2017-May-13 17:30N 54°43' W 005°17'611.7
2017-May-13 17:00N 54°37' W 005°15'611.5
2017-May-13 16:30N 54°31' W 005°13'611.0
2017-May-13 16:00N 54°26' W 005°12'510.8
2017-May-13 15:30N 54°21' W 005°12'510.6
2017-May-13 15:00N 54°15' W 005°13'510.5
2017-May-13 14:30N 54°10' W 005°14'  
Track history (hours):
 
Tides and Currents Weather Stations Pressure Air Temp Water Temp Dewpoint Dewpoint Depression Visibility Wind Speed Wind Dir Waves Ship Positions

Wilson Clyde

Last reported at 2017-May-22 23:22 UTC. Time now 2017-May-23 14:50 UTC.
Position N 66°15' E 011°44'.

Length 100 m; draft 4.2 m.

Type: Cargo ship. MMSI: 314187000.

Date/timePositionNaut miles runAvg speedWind from/ knotsBaromVisibWave heightAir tempDewpointWater temp
2017-May-22 23:22N 66°15' E 011°44'410.3
2017-May-22 23:00N 66°15' E 011°53'510.4
2017-May-22 22:30N 66°16' E 012°06'510.3
2017-May-22 22:00N 66°17' E 012°19'510.2
2017-May-22 21:30N 66°15' E 012°31'5 9.2
2017-May-22 21:00N 66°17' E 012°42'510.9
2017-May-22 20:30N 66°20' E 012°53'510.1
2017-May-22 20:00N 66°25' E 012°59'510.9
2017-May-22 19:30N 66°30' E 012°59'4 8.5
2017-May-22 19:00N 66°34' E 013°04'611.0
2017-May-22 18:30N 66°39' E 013°07'611.2
2017-May-22 18:00N 66°44' E 013°12'510.5
2017-May-22 17:30N 66°48' E 013°22'510.9
2017-May-22 17:00N 66°49' E 013°35'5 9.8
2017-May-22 16:30N 66°49' E 013°48'  
2017-May-18 00:17N 66°48' E 013°56'1 2.9
2017-May-17 23:58N 66°48' E 013°54'510.7
2017-May-17 23:30N 66°49' E 013°42'611.2
2017-May-17 23:00N 66°49' E 013°27'610.8
2017-May-17 22:30N 66°46' E 013°15'510.4
2017-May-17 22:00N 66°41' E 013°09'510.6
2017-May-17 21:30N 66°37' E 013°04'5 9.3
2017-May-17 21:00N 66°32' E 012°59'5 9.5
2017-May-17 20:30N 66°28' E 012°59'611.0
2017-May-17 20:00N 66°22' E 012°58'510.3
2017-May-17 19:29N 66°19' E 012°47'710.1
2017-May-17 18:48N 66°15' E 012°33'3 8.9
2017-May-17 18:30N 66°15' E 012°26'4 8.4
2017-May-17 18:00N 66°17' E 012°16'4 9.0
2017-May-17 17:30N 66°16' E 012°06'5 9.2
2017-May-17 17:00N 66°15' E 011°55'  
2017-May-15 03:34N 59°28' W 003°53'1 9.3
2017-May-15 03:30N 59°27' W 003°54'5 9.4
2017-May-15 03:00N 59°24' W 003°60'5 9.6
2017-May-15 02:30N 59°20' W 004°06'5 9.8
2017-May-15 02:00N 59°17' W 004°13'5 9.9
2017-May-15 01:30N 59°13' W 004°20'5 9.4
2017-May-15 01:00N 59°10' W 004°26'5 9.7
2017-May-15 00:30N 59°06' W 004°32'5 9.9
2017-May-15 00:00N 59°02' W 004°38'204 9.6
2017-May-14 02:40N 55°51' W 006°54'211.2
2017-May-14 02:30N 55°50' W 006°52'611.5
2017-May-14 02:00N 55°45' W 006°46'611.7
2017-May-14 01:30N 55°40' W 006°39'611.8
2017-May-14 01:00N 55°36' W 006°33'510.5
2017-May-14 00:30N 55°32' W 006°27'5 9.9
2017-May-14 00:00N 55°28' W 006°22'5 9.2
2017-May-13 23:30N 55°26' W 006°14'4 8.8
2017-May-13 23:00N 55°25' W 006°07'4 8.1
2017-May-13 22:30N 55°23' W 006°01'4 8.2
2017-May-13 22:00N 55°20' W 005°57'4 7.8
2017-May-13 21:30N 55°17' W 005°52'4 8.3
2017-May-13 21:00N 55°13' W 005°48'4 8.6
2017-May-13 20:30N 55°10' W 005°44'13 9.6
2017-May-13 19:09N 54°59' W 005°30'210.6
2017-May-13 19:00N 54°58' W 005°29'510.9
2017-May-13 18:30N 54°53' W 005°24'611.3
2017-May-13 18:00N 54°49' W 005°19'611.5
2017-May-13 17:30N 54°43' W 005°17'611.7
2017-May-13 17:00N 54°37' W 005°15'611.5
2017-May-13 16:30N 54°31' W 005°13'611.0
2017-May-13 16:00N 54°26' W 005°12'510.8
2017-May-13 15:30N 54°21' W 005°12'510.6
2017-May-13 15:00N 54°15' W 005°13'510.5
2017-May-13 14:30N 54°10' W 005°14'  

Dump ship's entire track history